Time;durP1;ratioP1;P1;durP2;ratioP2;P2;SDS_P1;SDS_P2;PMS_P1;PMS_P2;Temp;Humidity;BMP_temperature;BMP_pressure;BME280_temperature;BME280_humidity;BME280_pressure;Samples;Min_cycle;Max_cycle;Signal;HPM_P1;HPM_P2
2021/05/07 00:01:46;;;;;;;13.95;8.40;;;4.00;99.90;;;4.92;89.71;99707.94;6202023;23;20108;-78
2021/05/07 00:04:19;;;;;;;11.80;7.97;;;3.90;99.90;;;4.90;89.59;99713.00;6201570;23;20019;-79
2021/05/07 00:06:50;;;;;;;13.68;9.18;;;3.80;99.90;;;4.85;89.89;99715.19;6201230;23;20016;-79
2021/05/07 00:09:18;;;;;;;13.02;9.25;;;3.80;99.90;;;4.86;90.12;99717.59;6175105;23;20009;-78
2021/05/07 00:11:46;;;;;;;14.95;9.98;;;3.80;99.90;;;4.87;90.27;99710.13;6176760;23;20013;-81
2021/05/07 00:14:13;;;;;;;15.05;9.80;;;3.80;99.90;;;4.91;90.00;99722.94;6202800;23;20001;-79
2021/05/07 00:16:39;;;;;;;19.00;11.93;;;3.70;99.90;;;4.90;90.07;99712.19;6202514;23;20008;-80
2021/05/07 00:19:05;;;;;;;18.38;11.70;;;3.70;99.90;;;4.87;90.25;99726.72;6175958;23;20029;-79
2021/05/07 00:21:35;;;;;;;17.65;13.20;;;3.70;99.90;;;4.91;91.03;99719.34;6202340;23;20009;-79
2021/05/07 00:24:02;;;;;;;18.60;13.00;;;3.70;99.90;;;5.01;90.58;99732.75;6203520;23;20009;-80
2021/05/07 00:26:32;;;;;;;20.33;13.45;;;3.80;99.90;;;4.94;91.82;99724.22;6202326;23;20024;-80
2021/05/07 00:29:00;;;;;;;22.20;13.80;;;3.90;99.90;;;4.94;91.89;99732.50;6201125;23;20011;-81
2021/05/07 00:31:26;;;;;;;23.35;14.13;;;3.90;99.90;;;5.09;90.84;99727.13;6202457;23;20005;-81
2021/05/07 00:33:52;;;;;;;20.27;13.82;;;3.90;99.90;;;5.02;91.42;99723.28;6206903;23;20334;-80
2021/05/07 00:36:18;;;;;;;22.67;14.68;;;4.00;99.90;;;5.06;91.28;99729.75;6178088;23;20005;-79
2021/05/07 00:38:44;;;;;;;22.95;14.80;;;3.90;99.90;;;5.04;90.68;99735.63;6188261;23;20001;-79
2021/05/07 00:41:10;;;;;;;21.92;15.38;;;3.90;99.90;;;4.93;91.35;99742.75;6162181;23;20115;-79
2021/05/07 00:43:41;;;;;;;25.52;16.48;;;3.90;99.90;;;4.92;91.56;99734.78;6190882;23;20438;-79
2021/05/07 00:46:07;;;;;;;22.13;15.88;;;3.80;99.90;;;4.90;91.78;99737.91;6188914;23;20009;-79
2021/05/07 00:48:35;;;;;;;23.63;17.15;;;3.80;99.90;;;4.87;91.99;99733.06;6189567;23;20015;-81
2021/05/07 00:51:00;;;;;;;25.77;17.17;;;3.80;99.90;;;4.78;91.85;99730.38;6190037;23;20016;-79
2021/05/07 00:53:29;;;;;;;25.92;17.27;;;3.70;99.90;;;4.77;92.30;99739.03;6192933;23;20005;-82
2021/05/07 00:55:55;;;;;;;25.83;17.38;;;3.70;99.90;;;4.56;92.90;99733.53;6202112;23;20005;-78
2021/05/07 00:58:22;;;;;;;24.17;17.42;;;3.60;99.90;;;4.59;93.00;99735.63;6189635;23;20031;-79
2021/05/07 01:00:52;;;;;;;26.10;18.23;;;3.60;99.90;;;4.57;92.94;99735.16;6189178;23;20308;-79
2021/05/07 01:03:19;;;;;;;25.05;17.80;;;3.60;99.90;;;4.58;92.72;99728.50;6187892;23;20032;-78
2021/05/07 01:05:45;;;;;;;25.05;17.70;;;3.60;99.90;;;4.58;92.73;99733.22;6189754;23;20001;-79
2021/05/07 01:08:13;;;;;;;25.02;18.88;;;3.50;99.90;;;4.63;92.48;99742.09;6188805;23;20090;-79
2021/05/07 01:10:39;;;;;;;25.15;18.15;;;3.50;99.90;;;4.65;92.56;99739.81;6185986;23;20445;-79
2021/05/07 01:13:05;;;;;;;32.53;19.83;;;3.60;99.90;;;4.55;93.47;99747.72;6185750;23;20032;-79
2021/05/07 01:15:31;;;;;;;28.25;19.48;;;3.60;99.90;;;4.60;93.19;99742.78;6183769;23;20027;-81
2021/05/07 01:17:58;;;;;;;28.50;17.02;;;3.60;99.90;;;4.71;92.49;99741.22;6185801;23;20461;-78
2021/05/07 01:20:34;;;;;;;29.27;17.98;;;3.60;99.90;;;4.78;92.92;99751.72;6185139;23;20419;-79
2021/05/07 01:23:07;;;;;;;;;;;3.60;99.90;;;4.88;92.70;99751.25;6184384;23;20012;-79
2021/05/07 01:25:41;;;;;;;25.95;17.10;;;3.70;99.90;;;4.85;93.23;99751.16;6209094;23;19963;-77
2021/05/07 01:28:12;;;;;;;29.80;18.90;;;3.70;99.90;;;4.85;93.17;99763.00;6186672;23;20024;-81
2021/05/07 01:30:48;;;;;;;28.08;18.20;;;3.70;99.90;;;4.96;92.42;99757.88;6188168;23;20044;-79
2021/05/07 01:33:17;;;;;;;25.58;17.00;;;3.80;99.90;;;4.91;92.66;99756.16;6188676;23;20005;-79
2021/05/07 01:35:45;;;;;;;26.88;17.55;;;3.80;99.90;;;5.03;92.16;99758.13;6188588;23;20380;-81
2021/05/07 01:38:16;;;;;;;25.05;18.70;;;3.90;99.90;;;5.05;92.45;99758.56;6189664;23;20492;-80
2021/05/07 01:40:46;;;;;;;30.42;18.95;;;3.90;99.90;;;5.16;92.40;99770.81;6190574;23;20009;-80
2021/05/07 01:43:14;;;;;;;28.60;18.40;;;4.00;99.90;;;5.18;92.38;99757.44;6187421;23;20422;-82
2021/05/07 01:45:44;;;;;;;28.42;18.48;;;4.10;99.90;;;5.26;92.18;99762.09;6189302;23;20362;-80
2021/05/07 01:48:11;;;;;;;27.50;17.80;;;4.10;99.90;;;5.32;92.29;99766.25;6189485;23;20005;-80
2021/05/07 01:50:41;;;;;;;28.92;18.02;;;4.20;99.90;;;5.33;92.21;99773.38;6187969;23;20386;-80
2021/05/07 01:53:08;;;;;;;32.45;19.02;;;4.20;99.90;;;5.31;91.43;99775.69;6189460;23;20005;-82
2021/05/07 01:55:46;;;;;;;28.83;17.95;;;4.20;99.90;;;5.37;91.49;99771.53;6189039;23;20005;-81
2021/05/07 01:58:18;;;;;;;30.70;18.05;;;4.20;99.90;;;5.27;91.20;99772.81;6187714;23;20068;-79
2021/05/07 02:00:44;;;;;;;26.70;18.50;;;4.20;99.90;;;5.30;91.64;99771.28;6187280;23;20005;-79
2021/05/07 02:03:12;;;;;;;30.08;18.08;;;4.20;99.90;;;5.37;91.25;99773.50;6211281;23;20001;-80
2021/05/07 02:05:39;;;;;;;31.13;18.83;;;4.20;99.90;;;5.27;91.82;99778.34;6188242;23;20005;-79
2021/05/07 02:08:07;;;;;;;37.08;20.23;;;4.20;99.90;;;5.22;92.14;99784.09;6188534;23;20080;-80
2021/05/07 02:10:35;;;;;;;31.10;19.25;;;4.20;99.90;;;5.26;92.09;99782.28;6188406;23;20449;-80
2021/05/07 02:13:10;;;;;;;27.08;18.52;;;4.20;99.90;;;5.27;91.72;99783.06;6188776;23;20067;-81
2021/05/07 02:15:37;;;;;;;30.55;19.25;;;4.10;99.90;;;5.15;91.68;99785.81;6188889;23;20001;-81
2021/05/07 02:18:07;;;;;;;29.15;19.52;;;4.10;99.90;;;5.13;92.23;99788.13;6191122;23;20001;-81
2021/05/07 02:20:34;;;;;;;36.78;20.33;;;4.00;99.90;;;5.10;92.17;99789.63;6191659;23;20005;-80
2021/05/07 02:23:01;;;;;;;36.42;22.38;;;4.00;99.90;;;5.11;91.80;99794.00;6187956;23;20091;-80
2021/05/07 02:25:28;;;;;;;34.63;21.23;;;4.00;99.90;;;5.02;92.84;99795.22;6188839;23;20005;-80
2021/05/07 02:27:57;;;;;;;36.97;22.15;;;4.00;99.90;;;4.99;93.08;99793.97;6187766;23;20013;-81
2021/05/07 02:30:28;;;;;;;35.03;20.92;;;3.90;99.90;;;5.09;92.77;99799.06;6189312;23;20005;-80
2021/05/07 02:32:55;;;;;;;37.90;21.77;;;3.90;99.90;;;5.07;93.45;99798.59;6190605;23;20155;-81
2021/05/07 02:35:22;;;;;;;42.30;23.35;;;4.00;99.90;;;5.22;93.23;99809.03;6191066;23;20008;-82
2021/05/07 02:37:49;;;;;;;35.53;22.80;;;4.00;99.90;;;5.26;93.68;99803.63;6201075;23;20024;-79
2021/05/07 02:40:15;;;;;;;41.55;25.67;;;4.10;99.90;;;5.33;93.11;99803.84;6209454;23;20024;-79
2021/05/07 02:42:41;;;;;;;39.10;23.58;;;4.20;99.90;;;5.41;93.50;99808.47;6209543;23;20012;-79
2021/05/07 02:45:10;;;;;;;44.72;24.98;;;4.20;99.90;;;5.45;93.57;99814.94;6189583;23;20009;-79
2021/05/07 02:47:38;;;;;;;41.58;25.83;;;4.30;99.90;;;5.44;93.28;99821.63;6186556;23;20005;-80
2021/05/07 02:50:09;;;;;;;39.47;24.63;;;4.30;99.90;;;5.49;93.28;99820.63;6186604;23;20008;-82
2021/05/07 02:52:35;;;;;;;42.30;24.38;;;4.30;99.90;;;5.49;93.37;99817.84;6187288;23;20237;-81
2021/05/07 02:55:02;;;;;;;43.55;25.88;;;4.30;99.90;;;5.47;93.72;99820.13;6186627;23;20012;-80
2021/05/07 02:57:29;;;;;;;49.58;26.60;;;4.30;99.90;;;5.50;94.17;99820.25;6187228;23;20012;-81
2021/05/07 02:59:55;;;;;;;40.63;26.15;;;4.40;99.90;;;5.59;93.45;99820.13;6160971;23;20011;-82
2021/05/07 03:02:20;;;;;;;46.03;25.67;;;4.40;99.90;;;5.57;93.07;99816.91;6160075;23;20087;-81
2021/05/07 03:04:46;;;;;;;42.47;25.25;;;4.40;99.90;;;5.57;92.94;99828.81;6161692;23;20009;-82
2021/05/07 03:07:12;;;;;;;42.17;25.83;;;4.40;99.90;;;5.49;93.21;99818.63;6188772;23;20124;-80
2021/05/07 03:09:38;;;;;;;46.50;26.52;;;4.30;99.90;;;5.44;93.87;99827.16;6163327;23;20112;-80
2021/05/07 03:12:04;;;;;;;45.65;25.85;;;4.30;99.90;;;5.43;93.77;99831.09;6194607;23;20293;-80
2021/05/07 03:14:30;;;;;;;46.13;26.73;;;4.30;99.90;;;5.46;93.71;99832.38;6167360;23;20503;-80
2021/05/07 03:16:56;;;;;;;52.42;27.75;;;4.30;99.90;;;5.48;94.00;99836.41;6187636;23;20012;-81
2021/05/07 03:19:22;;;;;;;43.17;26.63;;;4.30;99.90;;;5.52;93.58;99836.53;6160573;23;20092;-81
2021/05/07 03:21:48;;;;;;;49.08;27.30;;;4.30;99.90;;;5.53;93.35;99829.81;6188482;23;20024;-80
2021/05/07 03:24:14;;;;;;;52.35;29.65;;;4.30;99.90;;;5.44;93.60;99834.66;6188301;23;20013;-83
2021/05/07 03:26:42;;;;;;;53.58;30.80;;;4.30;99.90;;;5.42;93.49;99846.09;6161422;23;20009;-81
2021/05/07 03:29:09;;;;;;;54.10;31.65;;;4.20;99.90;;;5.44;94.08;99852.09;6188815;23;20013;-81
2021/05/07 03:31:35;;;;;;;53.92;31.02;;;4.30;99.90;;;5.55;94.19;99858.81;6187305;23;20013;-78
2021/05/07 03:34:03;;;;;;;52.90;30.90;;;4.30;99.90;;;5.65;93.82;99857.56;6185652;23;20031;-81
2021/05/07 03:36:30;;;;;;;59.15;33.70;;;4.40;99.90;;;5.70;93.40;99855.38;6186653;23;20005;-79
2021/05/07 03:38:57;;;;;;;56.20;32.88;;;4.50;99.90;;;5.76;93.50;99861.47;6185998;23;20017;-80
2021/05/07 03:41:23;;;;;;;55.25;31.10;;;4.50;99.90;;;5.78;93.76;99870.25;6159578;23;20011;-79
2021/05/07 03:43:49;;;;;;;59.15;32.88;;;4.60;99.90;;;5.76;93.94;99870.63;6186128;23;20135;-79
2021/05/07 03:46:16;;;;;;;53.10;31.98;;;4.50;99.90;;;5.68;93.87;99879.03;6186573;23;20374;-80
2021/05/07 03:48:42;;;;;;;57.90;33.40;;;4.50;99.90;;;5.69;93.59;99873.13;6184437;23;20439;-81
2021/05/07 03:51:08;;;;;;;54.25;32.13;;;4.50;99.90;;;5.62;93.31;99878.44;6186695;23;20001;-81
2021/05/07 03:53:34;;;;;;;49.95;30.90;;;4.40;99.90;;;5.59;92.88;99870.00;6186701;23;20017;-82
2021/05/07 03:55:59;;;;;;;51.10;30.83;;;4.40;99.90;;;5.46;93.16;99877.47;6160120;23;20069;-80
2021/05/07 03:58:25;;;;;;;46.70;29.70;;;4.30;99.90;;;5.36;93.56;99877.94;6186851;23;20347;-80
2021/05/07 04:00:51;;;;;;;51.85;30.60;;;4.20;99.90;;;5.33;93.22;99884.13;6160589;23;20040;-81
2021/05/07 04:03:17;;;;;;;53.25;32.00;;;4.20;99.90;;;5.35;93.55;99890.16;6185536;23;20031;-80
2021/05/07 04:05:47;;;;;;;48.15;30.45;;;4.10;99.90;;;5.31;93.15;99895.56;6185751;23;20008;-80
2021/05/07 04:08:25;;;;;;;47.15;29.75;;;4.10;99.90;;;5.32;93.53;99899.16;6184615;23;20001;-80
2021/05/07 04:10:58;;;;;;;51.63;29.98;;;4.10;99.90;;;5.31;93.43;99886.44;6158958;23;20012;-81
2021/05/07 04:13:39;;;;;;;51.50;29.30;;;4.10;99.90;;;5.27;94.00;99902.09;6182899;23;20009;-79
2021/05/07 04:16:10;;;;;;;51.50;30.27;;;4.10;99.90;;;5.30;93.92;99893.94;6185124;23;20072;-79
2021/05/07 04:18:36;;;;;;;56.15;30.67;;;4.10;99.90;;;5.31;93.62;99900.28;6158115;23;20005;-80
2021/05/07 04:21:04;;;;;;;53.88;31.30;;;4.10;99.90;;;5.25;93.71;99904.41;6158427;23;20013;-80
2021/05/07 04:23:30;;;;;;;52.22;29.55;;;4.00;99.90;;;5.25;93.92;99909.97;6158811;23;20016;-79
2021/05/07 04:25:56;;;;;;;55.03;30.52;;;4.00;99.90;;;5.22;93.40;99911.44;6185969;23;20077;-82
2021/05/07 04:28:22;;;;;;;50.47;29.80;;;4.00;99.90;;;5.24;94.11;99916.63;6186170;23;20009;-80
2021/05/07 04:30:49;;;;;;;50.53;31.30;;;4.00;99.90;;;5.26;93.68;99909.63;6185380;23;20451;-80
2021/05/07 04:33:15;;;;;;;53.83;29.52;;;4.00;99.90;;;5.22;94.15;99919.75;6185554;23;20041;-81
2021/05/07 04:35:41;;;;;;;48.05;29.67;;;4.00;99.90;;;5.25;93.61;99918.25;6193105;23;20013;-81
2021/05/07 04:38:07;;;;;;;52.08;30.40;;;4.00;99.90;;;5.24;93.87;99916.63;6192513;23;20295;-81
2021/05/07 04:40:36;;;;;;;53.63;29.52;;;4.00;99.90;;;5.25;94.10;99924.63;6192838;23;20080;-82
2021/05/07 04:43:04;;;;;;;53.78;29.10;;;4.00;99.90;;;5.23;93.72;99924.13;6193088;23;20419;-82
2021/05/07 04:45:38;;;;;;;49.08;29.98;;;4.00;99.90;;;5.24;93.59;99925.75;6170282;23;20447;-80
2021/05/07 04:48:14;;;;;;;50.90;29.42;;;4.00;99.90;;;5.25;93.78;99930.16;6168116;23;20119;-81
2021/05/07 04:50:41;;;;;;;52.20;28.98;;;4.00;99.90;;;5.28;93.63;99939.72;6194022;23;20009;-81
2021/05/07 04:53:07;;;;;;;51.42;29.10;;;4.00;99.90;;;5.33;93.59;99942.28;6194595;23;20009;-83
2021/05/07 04:55:33;;;;;;;50.83;29.65;;;4.10;99.90;;;5.36;93.75;99957.41;6169826;23;20005;-81
2021/05/07 04:58:00;;;;;;;46.95;29.08;;;4.10;99.90;;;5.45;93.52;99952.59;6195820;23;20015;-81
2021/05/07 05:00:26;;;;;;;50.40;28.83;;;4.10;99.90;;;5.48;93.92;99955.50;6194476;23;20009;-81
2021/05/07 05:02:53;;;;;;;58.30;32.88;;;4.20;99.90;;;5.49;94.13;99957.09;6193369;23;20013;-80
2021/05/07 05:05:19;;;;;;;47.45;28.65;;;4.20;99.90;;;5.68;93.76;99962.16;6189766;23;20009;-80
2021/05/07 05:07:51;;;;;;;52.80;29.70;;;4.40;99.90;;;5.77;93.87;99965.63;6190288;23;20016;-80
2021/05/07 05:10:21;;;;;;;53.15;29.80;;;4.50;99.90;;;5.94;93.84;99970.22;6192200;23;20359;-79
2021/05/07 05:12:47;;;;;;;54.97;29.58;;;4.60;99.90;;;6.29;92.95;99966.66;6191818;23;20009;-80
2021/05/07 05:15:14;;;;;;;47.05;28.85;;;4.80;99.90;;;6.55;92.42;99973.84;6164666;23;20029;-79
2021/05/07 05:17:45;;;;;;;50.30;28.52;;;5.10;99.90;;;6.87;92.07;99976.44;6193765;23;20016;-80
2021/05/07 05:20:11;;;;;;;50.33;28.52;;;5.30;99.90;;;7.19;90.97;99984.94;6168519;23;20087;-79
2021/05/07 05:22:38;;;;;;;40.75;26.20;;;5.60;99.90;;;7.37;90.03;99983.50;6193748;23;20009;-82
2021/05/07 05:25:06;;;;;;;35.65;23.40;;;5.80;99.90;;;7.52;87.56;99979.13;6195671;23;20020;-79
2021/05/07 05:27:36;;;;;;;37.03;23.40;;;5.90;99.90;;;7.27;86.68;99986.75;6195484;23;20036;-81
2021/05/07 05:30:07;;;;;;;30.80;21.17;;;6.00;99.90;;;7.30;86.56;99986.06;6199970;23;20064;-80
2021/05/07 05:32:33;;;;;;;34.38;22.45;;;5.90;99.90;;;7.34;86.34;99989.75;6177325;23;20005;-82
2021/05/07 05:35:00;;;;;;;34.42;21.60;;;5.90;99.90;;;7.26;86.31;99991.50;6192813;23;20381;-79
2021/05/07 05:37:26;;;;;;;36.97;22.17;;;5.80;99.90;;;7.06;86.26;100000.84;6190895;23;20435;-81
2021/05/07 05:39:51;;;;;;;37.50;22.95;;;5.80;99.90;;;7.06;86.66;100011.13;6190275;23;20005;-81
2021/05/07 05:42:17;;;;;;;39.17;23.45;;;5.70;99.90;;;7.11;87.06;100010.88;6191747;23;20112;-79
2021/05/07 05:44:43;;;;;;;36.78;21.75;;;5.70;99.90;;;7.03;86.96;100015.38;6191610;23;20008;-79
2021/05/07 05:47:09;;;;;;;38.90;23.27;;;5.70;99.90;;;6.97;87.84;100019.56;6191937;23;20070;-79
2021/05/07 05:49:35;;;;;;;41.78;23.50;;;5.70;99.90;;;7.07;87.45;100023.84;6165077;23;20052;-79
2021/05/07 05:52:01;;;;;;;35.63;22.88;;;5.70;99.90;;;7.11;86.83;100014.47;6190861;23;20013;-78
2021/05/07 05:54:26;;;;;;;36.85;23.70;;;5.70;99.90;;;7.18;86.92;100023.00;6164152;23;20012;-81
2021/05/07 05:56:52;;;;;;;40.17;23.90;;;5.80;99.90;;;7.34;86.29;100023.91;6189093;23;20009;-82
2021/05/07 05:59:18;;;;;;;39.42;22.42;;;5.90;99.90;;;7.48;85.57;100029.03;6190435;23;20015;-77
2021/05/07 06:01:44;;;;;;;35.60;22.60;;;6.00;99.90;;;7.52;85.09;100027.19;6191477;23;20061;-78
2021/05/07 06:04:10;;;;;;;36.00;22.15;;;6.00;99.90;;;7.50;85.69;100032.31;6192606;23;20013;-80
2021/05/07 06:06:36;;;;;;;37.78;23.85;;;6.10;99.90;;;7.58;85.32;100041.66;6191149;23;20013;-80
2021/05/07 06:09:02;;;;;;;37.60;23.45;;;6.10;99.90;;;7.64;85.32;100045.81;6190110;23;20404;-78
2021/05/07 06:11:28;;;;;;;37.97;22.88;;;6.20;99.90;;;7.71;84.81;100043.22;6162728;23;20366;-79
2021/05/07 06:13:54;;;;;;;33.65;21.80;;;6.30;99.90;;;7.69;84.83;100051.09;6190009;23;20005;-78
2021/05/07 06:16:20;;;;;;;37.88;20.15;;;6.30;99.90;;;7.55;84.97;100048.72;6189007;23;20012;-77
2021/05/07 06:18:45;;;;;;;35.28;22.17;;;6.40;99.90;;;7.53;85.08;100050.22;6164705;23;20435;-79
2021/05/07 06:21:11;;;;;;;36.80;21.85;;;6.30;99.90;;;7.62;84.17;100046.16;6193961;23;20012;-79
2021/05/07 06:23:37;;;;;;;34.10;20.85;;;6.30;99.90;;;7.67;84.19;100050.66;6191797;23;20070;-79
2021/05/07 06:26:03;;;;;;;34.38;22.63;;;6.30;99.90;;;7.54;84.10;100052.66;6192669;23;20001;-79
2021/05/07 06:28:30;;;;;;;35.67;22.27;;;6.20;99.90;;;7.35;85.02;100058.06;6196178;23;20056;-79
2021/05/07 06:30:58;;;;;;;27.67;17.02;;;6.10;99.90;;;6.95;83.22;100063.53;6197080;23;20014;-80
2021/05/07 06:33:26;;;;;;;22.35;13.50;;;5.80;99.90;;;6.67;81.93;100068.16;6197962;23;20016;-79
2021/05/07 06:35:53;;;;;;;20.65;14.02;;;5.50;99.90;;;6.26;83.68;100072.72;6169965;23;20005;-81
2021/05/07 06:38:19;;;;;;;20.23;13.20;;;5.10;99.90;;;6.05;84.19;100071.97;6197812;23;20001;-80
2021/05/07 06:40:45;;;;;;;21.38;12.52;;;4.90;99.90;;;5.92;85.18;100069.50;6167599;23;20015;-80
2021/05/07 06:43:12;;;;;;;18.55;9.98;;;4.70;99.90;;;5.83;85.04;100075.91;6166486;23;20091;-79
2021/05/07 06:45:38;;;;;;;12.38;7.00;;;4.60;99.90;;;5.83;82.45;100087.00;6193962;23;20065;-79
2021/05/07 06:48:07;;;;;;;8.85;5.68;;;4.60;99.90;;;5.84;82.96;100088.59;6167020;23;20013;-79
2021/05/07 06:50:33;;;;;;;9.77;6.50;;;4.60;99.90;;;5.85;82.95;100103.28;6167791;23;20035;-80
2021/05/07 06:52:59;;;;;;;11.02;4.55;;;4.60;99.90;;;5.74;82.14;100099.31;6195170;23;20033;-80
2021/05/07 06:55:25;;;;;;;8.38;3.22;;;4.60;99.90;;;5.68;80.55;100112.53;6169470;23;20005;-80
2021/05/07 06:57:51;;;;;;;5.32;2.47;;;4.50;99.90;;;5.66;80.26;100105.72;6193443;23;20012;-80
2021/05/07 07:00:18;;;;;;;5.07;3.03;;;4.40;99.90;;;5.65;78.92;100095.81;6194949;23;20049;-82
2021/05/07 07:02:45;;;;;;;5.55;3.45;;;4.50;99.90;;;5.84;80.02;100104.44;6167698;23;20013;-82
2021/05/07 07:05:13;;;;;;;4.45;2.47;;;4.60;99.90;;;5.96;79.51;100107.28;6193567;23;20438;-80
2021/05/07 07:07:39;;;;;;;5.25;3.08;;;4.70;99.90;;;6.13;80.03;100107.09;6167403;23;20005;-79
2021/05/07 07:10:06;;;;;;;6.13;3.38;;;4.80;99.90;;;6.24;80.15;100119.41;6194791;23;20410;-79
2021/05/07 07:12:32;;;;;;;5.90;3.10;;;4.80;99.90;;;6.23;80.04;100109.47;6167105;23;20013;-79
2021/05/07 07:14:58;;;;;;;5.03;3.10;;;4.90;99.90;;;6.21;80.39;100120.09;6167201;23;20016;-80
2021/05/07 07:17:24;;;;;;;4.35;3.00;;;4.90;99.90;;;6.20;80.32;100131.50;6194897;23;20469;-79
2021/05/07 07:19:50;;;;;;;5.93;3.30;;;4.80;99.90;;;6.19;80.84;100135.47;6167291;23;20104;-79
2021/05/07 07:22:18;;;;;;;6.20;3.83;;;4.80;99.90;;;6.15;81.11;100134.50;6193904;23;20005;-80
2021/05/07 07:24:43;;;;;;;5.40;4.32;;;4.80;99.90;;;6.09;81.99;100142.25;6195500;23;20079;-80
2021/05/07 07:27:09;;;;;;;7.20;4.35;;;4.80;99.90;;;6.10;82.25;100140.28;6166353;23;20127;-79
2021/05/07 07:29:35;;;;;;;5.80;4.32;;;4.80;99.90;;;6.13;82.89;100148.69;6173298;23;20009;-80
2021/05/07 07:32:01;;;;;;;7.05;4.68;;;4.80;99.90;;;6.13;83.27;100153.47;6194576;23;20056;-79
2021/05/07 07:34:28;;;;;;;6.38;4.95;;;4.80;99.90;;;6.14;84.37;100155.06;6193459;23;20005;-80
2021/05/07 07:36:54;;;;;;;7.00;4.50;;;4.90;99.90;;;6.15;83.71;100156.69;6196611;23;20040;-80
2021/05/07 07:39:20;;;;;;;8.15;4.75;;;4.80;99.90;;;6.16;83.74;100170.22;6168261;23;20004;-80
2021/05/07 07:41:50;;;;;;;6.22;3.50;;;4.90;99.90;;;6.16;83.96;100170.22;6169023;23;20469;-79
2021/05/07 07:44:17;;;;;;;3.90;3.00;;;4.90;99.90;;;6.02;83.28;100180.78;6196645;23;20012;-81
2021/05/07 07:46:45;;;;;;;5.10;2.67;;;4.80;99.90;;;6.13;83.28;100186.72;6196722;23;20005;-81
2021/05/07 07:49:11;;;;;;;5.65;2.92;;;4.80;99.90;;;6.11;83.71;100184.28;6204967;23;20043;-80
2021/05/07 07:51:38;;;;;;;3.22;1.83;;;4.90;99.90;;;6.15;82.75;100195.50;6196055;23;20017;-78
2021/05/07 07:54:07;;;;;;;5.65;2.40;;;4.90;99.90;;;6.02;82.42;100199.38;6192205;23;20001;-80
2021/05/07 07:56:34;;;;;;;2.55;2.03;;;4.80;99.90;;;6.11;82.52;100200.91;6165102;23;20008;-79
2021/05/07 07:59:00;;;;;;;3.65;2.47;;;4.80;99.90;;;6.15;82.23;100199.09;6193351;23;20001;-78
2021/05/07 08:01:27;;;;;;;4.75;2.67;;;4.80;99.90;;;6.12;81.18;100199.78;6194324;23;20075;-78
2021/05/07 08:03:54;;;;;;;6.45;3.08;;;4.80;99.90;;;6.06;81.35;100205.88;6167656;23;20014;-79
2021/05/07 08:06:20;;;;;;;4.03;1.95;;;4.80;99.90;;;6.08;82.45;100204.38;6167991;23;20005;-79
2021/05/07 08:08:46;;;;;;;2.08;1.85;;;4.80;99.90;;;6.23;81.56;100212.06;6195181;23;20016;-82
2021/05/07 08:11:12;;;;;;;3.55;2.30;;;4.90;99.90;;;6.58;80.83;100211.75;6195091;23;20009;-79
2021/05/07 08:13:37;;;;;;;4.93;2.38;;;5.10;99.90;;;7.05;80.08;100212.19;6168335;23;20005;-80
2021/05/07 08:16:04;;;;;;;6.07;3.10;;;5.40;99.90;;;7.31;80.68;100207.13;6195106;23;20001;-79
2021/05/07 08:18:30;;;;;;;4.03;2.28;;;5.80;99.90;;;7.74;78.84;100226.78;6196006;23;20273;-80
2021/05/07 08:20:56;;;;;;;3.33;2.20;;;6.20;99.90;;;8.27;77.88;100227.59;6169656;23;20001;-82
2021/05/07 08:23:22;;;;;;;2.67;1.60;;;6.60;99.90;;;8.45;75.01;100237.28;6172182;23;20036;-81
2021/05/07 08:25:48;;;;;;;5.82;1.67;;;6.80;99.90;;;8.33;74.66;100237.34;6207519;23;20032;-80
2021/05/07 08:28:13;;;;;;;2.72;1.58;;;6.70;99.90;;;8.67;75.18;100247.88;6209633;23;20040;-81
2021/05/07 08:30:39;;;;;;;3.17;1.98;;;7.00;99.90;;;9.11;74.93;100254.25;6209724;23;20013;-80
2021/05/07 08:33:05;;;;;;;2.17;1.33;;;7.30;99.90;;;8.88;71.27;100254.03;6168811;23;20017;-79
2021/05/07 08:35:32;;;;;;;4.22;1.83;;;7.40;99.90;;;9.26;71.59;100247.06;6193039;23;20019;-80
2021/05/07 08:38:00;;;;;;;1.88;1.35;;;7.70;99.90;;;10.15;68.44;100261.19;6190784;23;20462;-80
2021/05/07 08:40:26;;;;;;;4.10;1.60;;;8.30;99.90;;;11.22;67.53;100265.81;6190374;23;20395;-80
2021/05/07 08:42:54;;;;;;;3.70;1.73;;;9.10;99.90;;;11.90;64.53;100264.97;6187603;23;20020;-80
2021/05/07 08:45:21;;;;;;;2.83;2.17;;;9.80;99.90;;;12.47;62.29;100275.00;6188335;23;20021;-80
2021/05/07 08:47:53;;;;;;;3.10;1.60;;;10.30;99.90;;;13.13;58.69;100286.25;6187972;23;20013;-79
2021/05/07 08:50:21;;;;;;;2.72;1.60;;;10.80;99.90;;;12.75;59.25;100294.19;6188400;23;20008;-81
2021/05/07 08:52:47;;;;;;;2.70;1.80;;;10.80;99.90;;;13.30;60.40;100292.41;6188794;23;20009;-78
2021/05/07 08:55:13;;;;;;;2.63;1.67;;;11.10;99.90;;;13.94;58.69;100291.00;6187921;23;20053;-78
2021/05/07 08:57:39;;;;;;;3.28;1.05;;;11.50;99.90;;;14.13;56.79;100288.75;6187340;23;20318;-79
2021/05/07 09:00:10;;;;;;;1.98;1.40;;;11.80;99.90;;;13.32;58.31;100301.28;6162456;23;20453;-80
2021/05/07 09:02:36;;;;;;;1.83;1.10;;;11.80;99.90;;;14.35;54.79;100303.78;6194175;23;20001;-79
2021/05/07 09:05:04;;;;;;;2.08;1.50;;;12.10;99.90;;;14.11;55.71;100310.00;6174154;23;20005;-79
2021/05/07 09:07:30;;;;;;;2.92;1.60;;;12.20;99.90;;;14.11;55.90;100310.78;6201172;23;20081;-78
2021/05/07 09:10:03;;;;;;;2.95;1.40;;;12.10;99.90;;;13.26;57.63;100302.81;6175840;23;20012;-80
2021/05/07 09:12:40;;;;;;;3.75;1.88;;;12.00;99.90;;;13.31;57.94;100310.88;6199172;23;20005;-80
2021/05/07 09:15:09;;;;;;;2.47;1.83;;;11.80;99.90;;;13.32;54.95;100313.31;6168912;23;20005;-78
2021/05/07 09:17:38;;;;;;;2.70;1.70;;;11.60;99.90;;;12.39;56.19;100320.91;6166039;23;20033;-79
2021/05/07 09:20:11;;;;;;;2.47;1.73;;;10.90;99.90;;;11.90;56.89;100323.75;6165177;23;20005;-79
2021/05/07 09:22:39;;;;;;;4.63;2.05;;;10.40;99.90;;;11.81;59.93;100329.59;6191820;23;20402;-78
2021/05/07 09:25:13;;;;;;;3.15;1.92;;;10.30;99.90;;;11.84;57.90;100339.25;6193155;23;20005;-78
2021/05/07 09:27:40;;;;;;;3.72;1.98;;;10.30;99.90;;;11.87;57.34;100338.50;6196218;23;20316;-79
2021/05/07 09:30:27;;;;;;;1.95;1.33;;;10.40;99.90;;;11.56;58.70;100345.09;6195350;23;20040;-79
2021/05/07 09:32:54;;;;;;;3.33;1.58;;;10.10;99.90;;;12.04;57.06;100347.16;6194769;23;20037;-79
2021/05/07 09:35:30;;;;;;;1.50;1.40;;;10.40;99.90;;;13.22;55.03;100358.06;6194783;23;20001;-79
2021/05/07 09:38:06;;;;;;;3.17;1.38;;;11.20;99.90;;;13.66;52.07;100370.16;6194442;23;20001;-79
2021/05/07 09:40:36;;;;;;;7.05;1.60;;;11.80;99.90;;;13.76;50.08;100363.03;6163488;23;20013;-78
2021/05/07 09:43:13;;;;;;;1.75;1.45;;;12.10;99.90;;;13.42;50.47;100365.88;6165484;23;20075;-80
2021/05/07 09:45:48;;;;;;;3.17;1.70;;;11.80;99.90;;;13.15;52.87;100376.41;6191764;23;20024;-79
2021/05/07 09:48:25;;;;;;;6.28;2.22;;;11.60;99.90;;;12.62;53.00;100378.47;6162206;23;20020;-80
2021/05/07 09:51:05;;;;;;;6.30;3.65;;;11.10;99.90;;;12.17;54.57;100378.56;6162388;23;20090;-79
2021/05/07 09:53:36;;;;;;;3.70;2.42;;;10.70;99.90;;;11.37;54.84;100396.28;6162692;23;20015;-78
2021/05/07 09:56:19;;;;;;;4.22;1.75;;;10.10;99.90;;;11.88;56.37;100399.66;6188499;23;20009;-80
2021/05/07 09:58:45;;;;;;;3.58;1.85;;;10.30;99.90;;;13.01;49.95;100406.22;6162924;23;20011;-80
2021/05/07 10:01:11;;;;;;;5.10;2.30;;;11.20;99.90;;;13.97;51.19;100411.75;6188981;23;20297;-81
2021/05/07 10:03:38;;;;;;;6.13;1.70;;;12.00;99.90;;;14.52;47.77;100411.84;6191014;23;20005;-80
2021/05/07 10:06:05;;;;;;;2.58;1.50;;;12.60;97.40;;;14.90;46.75;100404.88;6166452;23;20346;-80
2021/05/07 10:08:46;;;;;;;3.25;1.75;;;13.10;94.50;;;15.46;45.89;100413.56;6172930;23;20019;-78
2021/05/07 10:11:14;;;;;;;2.35;1.95;;;13.60;92.10;;;15.15;46.68;100419.88;6191028;23;20120;-80
2021/05/07 10:13:52;;;;;;;3.33;1.60;;;13.50;92.30;;;14.24;48.46;100430.06;6192970;23;20005;-79
2021/05/07 10:16:45;;;;;;;3.22;1.25;;;12.70;95.20;;;13.30;48.96;100433.47;6169637;23;20005;-79
2021/05/07 10:19:13;;;;;;;3.78;1.40;;;11.90;93.40;;;12.28;52.51;100432.75;6190073;23;20009;-79
2021/05/07 10:21:47;;;;;;;2.75;1.65;;;11.10;99.90;;;11.94;52.31;100436.56;6194446;23;20005;-80
2021/05/07 10:24:19;;;;;;;2.38;1.52;;;10.70;99.90;;;11.82;49.53;100440.34;6166999;23;20021;-80